sensor_id;sensor_type;location;lat;lon;timestamp;temperature;humidity
8402;DHT22;4238;48.404;9.498;2023-03-30T00:00:31;11.60;1.00
8402;DHT22;4238;48.404;9.498;2023-03-30T00:02:58;11.60;1.00
8402;DHT22;4238;48.404;9.498;2023-03-30T00:05:29;11.60;1.00
8402;DHT22;4238;48.404;9.498;2023-03-30T00:07:56;11.60;1.00
8402;DHT22;4238;48.404;9.498;2023-03-30T00:10:23;11.60;1.00
8402;DHT22;4238;48.404;9.498;2023-03-30T00:12:51;11.60;1.00
8402;DHT22;4238;48.404;9.498;2023-03-30T00:15:20;11.60;1.00
8402;DHT22;4238;48.404;9.498;2023-03-30T00:17:48;11.70;1.00
8402;DHT22;4238;48.404;9.498;2023-03-30T00:20:20;11.70;1.00
8402;DHT22;4238;48.404;9.498;2023-03-30T00:22:48;11.70;1.00
8402;DHT22;4238;48.404;9.498;2023-03-30T00:25:17;11.70;1.00
8402;DHT22;4238;48.404;9.498;2023-03-30T00:27:44;11.70;1.00
8402;DHT22;4238;48.404;9.498;2023-03-30T00:30:14;11.70;1.00
8402;DHT22;4238;48.404;9.498;2023-03-30T00:32:41;11.70;1.00
8402;DHT22;4238;48.404;9.498;2023-03-30T00:35:09;11.70;1.00
8402;DHT22;4238;48.404;9.498;2023-03-30T00:37:36;11.70;1.00
8402;DHT22;4238;48.404;9.498;2023-03-30T00:40:07;11.70;1.00
8402;DHT22;4238;48.404;9.498;2023-03-30T00:42:35;11.70;1.00
8402;DHT22;4238;48.404;9.498;2023-03-30T00:45:09;11.70;1.00
8402;DHT22;4238;48.404;9.498;2023-03-30T00:47:42;11.70;1.00
8402;DHT22;4238;48.404;9.498;2023-03-30T00:50:12;11.70;1.00
8402;DHT22;4238;48.404;9.498;2023-03-30T00:52:40;11.80;1.00
8402;DHT22;4238;48.404;9.498;2023-03-30T00:55:10;11.80;1.00
8402;DHT22;4238;48.404;9.498;2023-03-30T00:57:39;11.80;1.00
8402;DHT22;4238;48.404;9.498;2023-03-30T01:00:08;11.80;1.00
8402;DHT22;4238;48.404;9.498;2023-03-30T01:02:40;11.90;1.00
8402;DHT22;4238;48.404;9.498;2023-03-30T01:05:09;11.80;1.00
8402;DHT22;4238;48.404;9.498;2023-03-30T01:07:38;11.70;1.00
8402;DHT22;4238;48.404;9.498;2023-03-30T01:10:07;11.70;1.00
8402;DHT22;4238;48.404;9.498;2023-03-30T01:12:36;11.60;1.00
8402;DHT22;4238;48.404;9.498;2023-03-30T01:15:04;11.60;1.00
8402;DHT22;4238;48.404;9.498;2023-03-30T01:17:34;11.60;1.00
8402;DHT22;4238;48.404;9.498;2023-03-30T01:20:33;11.60;1.00
8402;DHT22;4238;48.404;9.498;2023-03-30T01:23:25;11.50;1.00
8402;DHT22;4238;48.404;9.498;2023-03-30T01:26:17;11.50;1.00
8402;DHT22;4238;48.404;9.498;2023-03-30T01:28:51;11.50;1.00
8402;DHT22;4238;48.404;9.498;2023-03-30T01:31:53;11.50;1.00
8402;DHT22;4238;48.404;9.498;2023-03-30T01:34:50;11.50;1.00
8402;DHT22;4238;48.404;9.498;2023-03-30T01:40:32;11.40;13.90
8402;DHT22;4238;48.404;9.498;2023-03-30T01:43:08;11.30;23.80
8402;DHT22;4238;48.404;9.498;2023-03-30T01:45:42;11.20;33.70
8402;DHT22;4238;48.404;9.498;2023-03-30T01:48:14;11.10;39.30
8402;DHT22;4238;48.404;9.498;2023-03-30T01:50:45;11.10;23.90
8402;DHT22;4238;48.404;9.498;2023-03-30T01:53:16;11.20;17.60
8402;DHT22;4238;48.404;9.498;2023-03-30T01:55:48;11.20;42.20
8402;DHT22;4238;48.404;9.498;2023-03-30T01:58:21;11.20;52.20
8402;DHT22;4238;48.404;9.498;2023-03-30T02:00:49;11.10;59.10
8402;DHT22;4238;48.404;9.498;2023-03-30T02:03:19;11.10;59.60
8402;DHT22;4238;48.404;9.498;2023-03-30T02:05:50;11.00;74.70
8402;DHT22;4238;48.404;9.498;2023-03-30T02:08:22;11.10;47.40
8402;DHT22;4238;48.404;9.498;2023-03-30T02:10:54;11.20;42.60
8402;DHT22;4238;48.404;9.498;2023-03-30T02:13:23;11.20;33.10
8402;DHT22;4238;48.404;9.498;2023-03-30T02:15:56;11.30;37.20
8402;DHT22;4238;48.404;9.498;2023-03-30T02:18:24;11.30;37.70
8402;DHT22;4238;48.404;9.498;2023-03-30T02:20:52;11.30;46.70
8402;DHT22;4238;48.404;9.498;2023-03-30T02:23:22;11.30;61.80
8402;DHT22;4238;48.404;9.498;2023-03-30T02:25:52;11.20;67.50
8402;DHT22;4238;48.404;9.498;2023-03-30T02:28:19;11.20;73.70
8402;DHT22;4238;48.404;9.498;2023-03-30T02:30:46;11.20;86.90
8402;DHT22;4238;48.404;9.498;2023-03-30T02:33:21;11.10;88.10
8402;DHT22;4238;48.404;9.498;2023-03-30T02:36:09;11.10;92.10
8402;DHT22;4238;48.404;9.498;2023-03-30T02:38:55;11.00;98.60
8402;DHT22;4238;48.404;9.498;2023-03-30T02:41:41;10.90;98.20
8402;DHT22;4238;48.404;9.498;2023-03-30T02:44:20;10.80;99.70
8402;DHT22;4238;48.404;9.498;2023-03-30T02:46:58;10.80;99.90
8402;DHT22;4238;48.404;9.498;2023-03-30T02:49:46;10.80;99.90
8402;DHT22;4238;48.404;9.498;2023-03-30T02:52:23;10.70;99.90
8402;DHT22;4238;48.404;9.498;2023-03-30T02:55:08;10.60;99.90
8402;DHT22;4238;48.404;9.498;2023-03-30T02:57:45;10.60;99.90
8402;DHT22;4238;48.404;9.498;2023-03-30T03:00:20;10.60;99.90
8402;DHT22;4238;48.404;9.498;2023-03-30T03:02:51;10.60;99.90
8402;DHT22;4238;48.404;9.498;2023-03-30T03:05:19;10.60;99.90
8402;DHT22;4238;48.404;9.498;2023-03-30T03:07:47;10.50;99.90
8402;DHT22;4238;48.404;9.498;2023-03-30T03:10:14;10.50;99.90
8402;DHT22;4238;48.404;9.498;2023-03-30T03:12:43;10.50;99.90
8402;DHT22;4238;48.404;9.498;2023-03-30T03:15:11;10.50;99.90
8402;DHT22;4238;48.404;9.498;2023-03-30T03:17:38;10.50;99.90
8402;DHT22;4238;48.404;9.498;2023-03-30T03:20:06;10.50;99.90
8402;DHT22;4238;48.404;9.498;2023-03-30T03:22:34;10.40;99.90
8402;DHT22;4238;48.404;9.498;2023-03-30T03:25:02;10.40;99.90
8402;DHT22;4238;48.404;9.498;2023-03-30T03:27:30;10.50;99.90
8402;DHT22;4238;48.404;9.498;2023-03-30T03:29:58;10.40;99.90
8402;DHT22;4238;48.404;9.498;2023-03-30T03:32:25;10.40;99.90
8402;DHT22;4238;48.404;9.498;2023-03-30T03:34:52;10.40;99.90
8402;DHT22;4238;48.404;9.498;2023-03-30T03:37:19;10.40;99.90
8402;DHT22;4238;48.404;9.498;2023-03-30T03:39:45;10.40;99.90
8402;DHT22;4238;48.404;9.498;2023-03-30T03:42:12;10.40;99.90
8402;DHT22;4238;48.404;9.498;2023-03-30T03:44:40;10.50;99.90
8402;DHT22;4238;48.404;9.498;2023-03-30T03:47:08;10.60;99.90
8402;DHT22;4238;48.404;9.498;2023-03-30T03:49:37;10.60;99.90
8402;DHT22;4238;48.404;9.498;2023-03-30T03:52:04;10.60;99.90
8402;DHT22;4238;48.404;9.498;2023-03-30T03:54:32;10.60;99.90
8402;DHT22;4238;48.404;9.498;2023-03-30T03:56:59;10.60;99.90
8402;DHT22;4238;48.404;9.498;2023-03-30T03:59:26;10.60;99.90
8402;DHT22;4238;48.404;9.498;2023-03-30T04:01:53;10.60;99.90
8402;DHT22;4238;48.404;9.498;2023-03-30T04:04:21;10.50;99.90
8402;DHT22;4238;48.404;9.498;2023-03-30T04:06:48;10.50;99.90
8402;DHT22;4238;48.404;9.498;2023-03-30T04:09:15;10.50;99.90
8402;DHT22;4238;48.404;9.498;2023-03-30T04:11:43;10.50;99.90
8402;DHT22;4238;48.404;9.498;2023-03-30T04:14:10;10.50;99.90
8402;DHT22;4238;48.404;9.498;2023-03-30T04:16:37;10.50;99.90
8402;DHT22;4238;48.404;9.498;2023-03-30T04:19:04;10.50;99.90
8402;DHT22;4238;48.404;9.498;2023-03-30T04:21:35;10.40;99.90
8402;DHT22;4238;48.404;9.498;2023-03-30T04:24:06;10.40;99.90
8402;DHT22;4238;48.404;9.498;2023-03-30T04:26:34;10.30;99.90
8402;DHT22;4238;48.404;9.498;2023-03-30T04:29:01;10.20;99.90
8402;DHT22;4238;48.404;9.498;2023-03-30T04:31:31;10.10;99.90
8402;DHT22;4238;48.404;9.498;2023-03-30T04:33:59;10.10;99.90
8402;DHT22;4238;48.404;9.498;2023-03-30T04:36:27;10.10;99.90
8402;DHT22;4238;48.404;9.498;2023-03-30T04:38:55;10.00;99.90
8402;DHT22;4238;48.404;9.498;2023-03-30T04:41:27;10.00;99.90
8402;DHT22;4238;48.404;9.498;2023-03-30T04:44:00;10.00;99.90
8402;DHT22;4238;48.404;9.498;2023-03-30T04:46:27;10.00;99.90
8402;DHT22;4238;48.404;9.498;2023-03-30T04:48:54;10.10;99.90
8402;DHT22;4238;48.404;9.498;2023-03-30T04:51:21;10.00;99.90
8402;DHT22;4238;48.404;9.498;2023-03-30T04:53:49;10.00;99.90
8402;DHT22;4238;48.404;9.498;2023-03-30T04:56:17;10.00;99.90
8402;DHT22;4238;48.404;9.498;2023-03-30T04:58:44;10.00;99.90
8402;DHT22;4238;48.404;9.498;2023-03-30T05:01:11;10.00;99.90
8402;DHT22;4238;48.404;9.498;2023-03-30T05:03:38;10.00;99.90
8402;DHT22;4238;48.404;9.498;2023-03-30T05:06:05;10.00;99.90
8402;DHT22;4238;48.404;9.498;2023-03-30T05:08:32;10.00;99.90
8402;DHT22;4238;48.404;9.498;2023-03-30T05:11:00;10.00;99.90
8402;DHT22;4238;48.404;9.498;2023-03-30T05:13:30;9.90;99.90
8402;DHT22;4238;48.404;9.498;2023-03-30T05:15:58;10.00;99.90
8402;DHT22;4238;48.404;9.498;2023-03-30T05:18:24;9.90;99.90
8402;DHT22;4238;48.404;9.498;2023-03-30T05:20:55;9.90;99.90
8402;DHT22;4238;48.404;9.498;2023-03-30T05:23:22;9.80;99.90
8402;DHT22;4238;48.404;9.498;2023-03-30T05:25:50;9.90;99.90
8402;DHT22;4238;48.404;9.498;2023-03-30T05:28:17;9.90;99.90
8402;DHT22;4238;48.404;9.498;2023-03-30T05:30:45;9.90;99.90
8402;DHT22;4238;48.404;9.498;2023-03-30T05:33:12;9.90;99.90
8402;DHT22;4238;48.404;9.498;2023-03-30T05:35:39;9.90;99.90
8402;DHT22;4238;48.404;9.498;2023-03-30T05:38:06;9.90;99.90
8402;DHT22;4238;48.404;9.498;2023-03-30T05:40:33;9.90;99.90
8402;DHT22;4238;48.404;9.498;2023-03-30T05:43:01;9.90;99.90
8402;DHT22;4238;48.404;9.498;2023-03-30T05:45:28;9.90;99.90
8402;DHT22;4238;48.404;9.498;2023-03-30T05:47:56;9.90;99.90
8402;DHT22;4238;48.404;9.498;2023-03-30T05:50:23;9.90;99.90
8402;DHT22;4238;48.404;9.498;2023-03-30T05:52:50;9.90;99.90
8402;DHT22;4238;48.404;9.498;2023-03-30T05:55:17;9.90;99.90
8402;DHT22;4238;48.404;9.498;2023-03-30T05:57:44;9.90;99.90
8402;DHT22;4238;48.404;9.498;2023-03-30T06:00:12;9.90;99.90
8402;DHT22;4238;48.404;9.498;2023-03-30T06:02:40;10.00;99.90
8402;DHT22;4238;48.404;9.498;2023-03-30T06:05:09;10.00;99.90
8402;DHT22;4238;48.404;9.498;2023-03-30T06:07:36;9.90;99.90
8402;DHT22;4238;48.404;9.498;2023-03-30T06:10:04;9.90;99.90
8402;DHT22;4238;48.404;9.498;2023-03-30T06:12:32;10.00;99.90
8402;DHT22;4238;48.404;9.498;2023-03-30T06:14:59;10.00;99.90
8402;DHT22;4238;48.404;9.498;2023-03-30T06:17:27;10.00;99.90
8402;DHT22;4238;48.404;9.498;2023-03-30T06:19:54;10.00;99.90
8402;DHT22;4238;48.404;9.498;2023-03-30T06:22:23;10.00;99.90
8402;DHT22;4238;48.404;9.498;2023-03-30T06:24:50;10.00;99.90
8402;DHT22;4238;48.404;9.498;2023-03-30T06:27:17;10.00;99.90
8402;DHT22;4238;48.404;9.498;2023-03-30T06:29:44;10.00;99.90
8402;DHT22;4238;48.404;9.498;2023-03-30T06:32:10;10.10;99.90
8402;DHT22;4238;48.404;9.498;2023-03-30T06:34:37;10.10;99.90
8402;DHT22;4238;48.404;9.498;2023-03-30T06:37:06;10.10;99.90
8402;DHT22;4238;48.404;9.498;2023-03-30T06:39:34;10.20;99.90
8402;DHT22;4238;48.404;9.498;2023-03-30T06:42:02;10.20;99.90
8402;DHT22;4238;48.404;9.498;2023-03-30T06:44:30;10.20;99.90
8402;DHT22;4238;48.404;9.498;2023-03-30T06:46:58;10.20;99.90
8402;DHT22;4238;48.404;9.498;2023-03-30T06:49:25;10.30;99.90
8402;DHT22;4238;48.404;9.498;2023-03-30T06:51:52;10.20;99.90
8402;DHT22;4238;48.404;9.498;2023-03-30T06:54:19;10.30;99.90
8402;DHT22;4238;48.404;9.498;2023-03-30T06:56:48;10.30;99.90
8402;DHT22;4238;48.404;9.498;2023-03-30T06:59:15;10.40;99.90
8402;DHT22;4238;48.404;9.498;2023-03-30T07:01:42;10.50;99.90
8402;DHT22;4238;48.404;9.498;2023-03-30T07:04:09;10.60;99.90
8402;DHT22;4238;48.404;9.498;2023-03-30T07:06:36;10.70;99.90
8402;DHT22;4238;48.404;9.498;2023-03-30T07:09:03;10.80;99.90
8402;DHT22;4238;48.404;9.498;2023-03-30T07:11:31;10.90;99.90
8402;DHT22;4238;48.404;9.498;2023-03-30T07:13:59;11.10;99.90
8402;DHT22;4238;48.404;9.498;2023-03-30T07:16:27;11.20;99.90
8402;DHT22;4238;48.404;9.498;2023-03-30T07:18:53;11.30;99.90
8402;DHT22;4238;48.404;9.498;2023-03-30T07:21:20;11.50;99.90
8402;DHT22;4238;48.404;9.498;2023-03-30T07:23:47;11.70;99.90
8402;DHT22;4238;48.404;9.498;2023-03-30T07:26:15;11.90;99.90
8402;DHT22;4238;48.404;9.498;2023-03-30T07:28:42;11.90;99.90
8402;DHT22;4238;48.404;9.498;2023-03-30T07:31:12;11.80;99.90
8402;DHT22;4238;48.404;9.498;2023-03-30T07:33:39;11.80;99.90
8402;DHT22;4238;48.404;9.498;2023-03-30T07:36:07;11.70;99.90
8402;DHT22;4238;48.404;9.498;2023-03-30T07:38:34;11.70;97.60
8402;DHT22;4238;48.404;9.498;2023-03-30T07:41:05;11.70;99.20
8402;DHT22;4238;48.404;9.498;2023-03-30T07:43:33;11.70;99.90
8402;DHT22;4238;48.404;9.498;2023-03-30T07:46:00;11.80;99.90
8402;DHT22;4238;48.404;9.498;2023-03-30T07:48:28;11.90;99.90
8402;DHT22;4238;48.404;9.498;2023-03-30T07:50:59;12.00;99.90
8402;DHT22;4238;48.404;9.498;2023-03-30T07:53:26;12.10;98.20
8402;DHT22;4238;48.404;9.498;2023-03-30T07:55:53;12.10;96.10
8402;DHT22;4238;48.404;9.498;2023-03-30T07:58:20;12.10;99.90
8402;DHT22;4238;48.404;9.498;2023-03-30T08:00:48;12.30;99.90
8402;DHT22;4238;48.404;9.498;2023-03-30T08:03:14;12.40;98.80
8402;DHT22;4238;48.404;9.498;2023-03-30T08:05:51;12.40;96.90
8402;DHT22;4238;48.404;9.498;2023-03-30T08:08:18;12.50;91.20
8402;DHT22;4238;48.404;9.498;2023-03-30T08:10:45;12.60;91.10
8402;DHT22;4238;48.404;9.498;2023-03-30T08:13:12;12.70;89.90
8402;DHT22;4238;48.404;9.498;2023-03-30T08:15:39;12.70;81.80
8402;DHT22;4238;48.404;9.498;2023-03-30T08:18:06;12.70;76.90
8402;DHT22;4238;48.404;9.498;2023-03-30T08:20:33;12.80;75.10
8402;DHT22;4238;48.404;9.498;2023-03-30T08:23:02;12.80;81.10
8402;DHT22;4238;48.404;9.498;2023-03-30T08:25:29;12.80;78.90
8402;DHT22;4238;48.404;9.498;2023-03-30T08:27:56;12.90;80.60
8402;DHT22;4238;48.404;9.498;2023-03-30T08:30:24;13.00;88.80
8402;DHT22;4238;48.404;9.498;2023-03-30T08:32:51;13.10;84.50
8402;DHT22;4238;48.404;9.498;2023-03-30T08:35:18;13.10;90.10
8402;DHT22;4238;48.404;9.498;2023-03-30T08:37:46;13.00;67.00
8402;DHT22;4238;48.404;9.498;2023-03-30T08:40:15;12.90;69.00
8402;DHT22;4238;48.404;9.498;2023-03-30T08:42:56;12.70;67.10
8402;DHT22;4238;48.404;9.498;2023-03-30T08:45:34;12.60;79.50
8402;DHT22;4238;48.404;9.498;2023-03-30T08:48:05;12.60;89.50
8402;DHT22;4238;48.404;9.498;2023-03-30T08:50:34;12.60;88.70
8402;DHT22;4238;48.404;9.498;2023-03-30T08:53:02;12.60;88.40
8402;DHT22;4238;48.404;9.498;2023-03-30T08:55:36;12.70;79.60
8402;DHT22;4238;48.404;9.498;2023-03-30T08:58:10;12.80;76.30
8402;DHT22;4238;48.404;9.498;2023-03-30T09:00:41;12.70;59.50
8402;DHT22;4238;48.404;9.498;2023-03-30T09:03:15;12.70;60.10
8402;DHT22;4238;48.404;9.498;2023-03-30T09:05:48;12.60;66.10
8402;DHT22;4238;48.404;9.498;2023-03-30T09:08:19;12.60;77.90
8402;DHT22;4238;48.404;9.498;2023-03-30T09:10:51;12.50;88.20
8402;DHT22;4238;48.404;9.498;2023-03-30T09:13:22;12.40;89.60
8402;DHT22;4238;48.404;9.498;2023-03-30T09:15:54;12.30;92.10
8402;DHT22;4238;48.404;9.498;2023-03-30T09:18:26;12.20;94.80
8402;DHT22;4238;48.404;9.498;2023-03-30T09:20:57;12.00;99.90
8402;DHT22;4238;48.404;9.498;2023-03-30T09:23:26;11.80;99.90
8402;DHT22;4238;48.404;9.498;2023-03-30T09:26:00;11.60;99.90
8402;DHT22;4238;48.404;9.498;2023-03-30T09:28:33;11.60;99.90
8402;DHT22;4238;48.404;9.498;2023-03-30T09:31:07;11.50;99.90
8402;DHT22;4238;48.404;9.498;2023-03-30T09:33:42;11.30;99.90
8402;DHT22;4238;48.404;9.498;2023-03-30T09:36:14;11.20;99.90
8402;DHT22;4238;48.404;9.498;2023-03-30T09:38:42;11.10;99.90
8402;DHT22;4238;48.404;9.498;2023-03-30T09:43:58;10.90;99.90
8402;DHT22;4238;48.404;9.498;2023-03-30T09:46:25;10.80;99.90
8402;DHT22;4238;48.404;9.498;2023-03-30T09:48:53;10.70;99.90
8402;DHT22;4238;48.404;9.498;2023-03-30T09:51:22;10.70;99.90
8402;DHT22;4238;48.404;9.498;2023-03-30T09:53:51;10.60;99.90
8402;DHT22;4238;48.404;9.498;2023-03-30T09:56:27;10.50;99.90
8402;DHT22;4238;48.404;9.498;2023-03-30T09:58:54;10.50;99.90
8402;DHT22;4238;48.404;9.498;2023-03-30T10:01:21;10.40;99.90
8402;DHT22;4238;48.404;9.498;2023-03-30T10:04:08;10.40;99.90
8402;DHT22;4238;48.404;9.498;2023-03-30T10:06:38;10.30;99.90
8402;DHT22;4238;48.404;9.498;2023-03-30T10:09:11;10.30;99.90
8402;DHT22;4238;48.404;9.498;2023-03-30T10:11:41;10.20;99.90
8402;DHT22;4238;48.404;9.498;2023-03-30T10:14:21;10.20;99.90
8402;DHT22;4238;48.404;9.498;2023-03-30T10:16:50;10.20;99.90
8402;DHT22;4238;48.404;9.498;2023-03-30T10:19:19;10.20;99.90
8402;DHT22;4238;48.404;9.498;2023-03-30T10:21:52;10.20;99.90
8402;DHT22;4238;48.404;9.498;2023-03-30T10:24:21;10.30;99.90
8402;DHT22;4238;48.404;9.498;2023-03-30T10:26:52;10.40;99.90
8402;DHT22;4238;48.404;9.498;2023-03-30T10:29:22;10.50;99.90
8402;DHT22;4238;48.404;9.498;2023-03-30T10:31:54;10.50;99.90
8402;DHT22;4238;48.404;9.498;2023-03-30T10:34:31;10.60;99.90
8402;DHT22;4238;48.404;9.498;2023-03-30T10:36:58;10.60;99.90
8402;DHT22;4238;48.404;9.498;2023-03-30T10:39:29;10.60;99.90
8402;DHT22;4238;48.404;9.498;2023-03-30T10:42:00;10.60;99.90
8402;DHT22;4238;48.404;9.498;2023-03-30T10:44:31;10.70;99.90
8402;DHT22;4238;48.404;9.498;2023-03-30T10:47:07;10.70;99.90
8402;DHT22;4238;48.404;9.498;2023-03-30T10:49:40;10.60;99.90
8402;DHT22;4238;48.404;9.498;2023-03-30T10:52:17;10.70;99.90
8402;DHT22;4238;48.404;9.498;2023-03-30T10:54:52;10.70;99.90
8402;DHT22;4238;48.404;9.498;2023-03-30T10:57:27;10.70;99.90
8402;DHT22;4238;48.404;9.498;2023-03-30T11:00:12;10.70;99.90
8402;DHT22;4238;48.404;9.498;2023-03-30T11:02:48;10.70;99.90
8402;DHT22;4238;48.404;9.498;2023-03-30T11:05:18;10.80;99.90
8402;DHT22;4238;48.404;9.498;2023-03-30T11:07:51;10.80;99.90
8402;DHT22;4238;48.404;9.498;2023-03-30T11:10:20;10.80;99.90
8402;DHT22;4238;48.404;9.498;2023-03-30T11:12:58;10.90;99.90
8402;DHT22;4238;48.404;9.498;2023-03-30T11:15:30;11.00;99.90
8402;DHT22;4238;48.404;9.498;2023-03-30T11:18:04;11.00;99.90
8402;DHT22;4238;48.404;9.498;2023-03-30T11:20:36;11.00;99.90
8402;DHT22;4238;48.404;9.498;2023-03-30T11:23:13;11.00;99.90
8402;DHT22;4238;48.404;9.498;2023-03-30T11:25:51;10.90;99.90
8402;DHT22;4238;48.404;9.498;2023-03-30T11:28:30;10.90;99.90
8402;DHT22;4238;48.404;9.498;2023-03-30T11:31:05;10.90;99.90
8402;DHT22;4238;48.404;9.498;2023-03-30T11:33:37;10.90;99.90
8402;DHT22;4238;48.404;9.498;2023-03-30T11:36:13;10.90;99.90
8402;DHT22;4238;48.404;9.498;2023-03-30T11:38:47;10.90;99.90
8402;DHT22;4238;48.404;9.498;2023-03-30T11:41:16;11.00;99.90
8402;DHT22;4238;48.404;9.498;2023-03-30T11:43:48;11.00;99.90
8402;DHT22;4238;48.404;9.498;2023-03-30T11:46:24;11.00;99.90
8402;DHT22;4238;48.404;9.498;2023-03-30T11:49:05;11.10;99.90
8402;DHT22;4238;48.404;9.498;2023-03-30T11:51:44;11.20;99.90
8402;DHT22;4238;48.404;9.498;2023-03-30T11:57:32;12.20;99.90
8402;DHT22;4238;48.404;9.498;2023-03-30T12:00:11;13.10;97.10
8402;DHT22;4238;48.404;9.498;2023-03-30T12:02:48;13.70;79.20
8402;DHT22;4238;48.404;9.498;2023-03-30T12:05:20;13.60;59.50
8402;DHT22;4238;48.404;9.498;2023-03-30T12:07:52;13.30;50.10
8402;DHT22;4238;48.404;9.498;2023-03-30T12:10:27;13.00;73.30
8402;DHT22;4238;48.404;9.498;2023-03-30T12:12:56;12.60;87.70
8402;DHT22;4238;48.404;9.498;2023-03-30T12:15:41;12.40;93.00
8402;DHT22;4238;48.404;9.498;2023-03-30T12:18:17;12.10;96.40
8402;DHT22;4238;48.404;9.498;2023-03-30T12:20:49;12.00;96.70
8402;DHT22;4238;48.404;9.498;2023-03-30T12:23:26;11.90;97.60
8402;DHT22;4238;48.404;9.498;2023-03-30T12:26:08;11.90;98.20
8402;DHT22;4238;48.404;9.498;2023-03-30T12:28:43;11.90;95.60
8402;DHT22;4238;48.404;9.498;2023-03-30T12:31:12;12.10;95.70
8402;DHT22;4238;48.404;9.498;2023-03-30T12:33:47;12.10;45.80
8402;DHT22;4238;48.404;9.498;2023-03-30T12:36:24;12.10;53.00
8402;DHT22;4238;48.404;9.498;2023-03-30T12:39:00;12.10;64.90
8402;DHT22;4238;48.404;9.498;2023-03-30T12:41:38;12.00;50.30
8402;DHT22;4238;48.404;9.498;2023-03-30T12:47:40;11.60;39.30
8402;DHT22;4238;48.404;9.498;2023-03-30T12:50:28;11.60;38.70
8402;DHT22;4238;48.404;9.498;2023-03-30T12:53:20;11.70;33.40
8402;DHT22;4238;48.404;9.498;2023-03-30T12:55:59;11.70;37.60
8402;DHT22;4238;48.404;9.498;2023-03-30T12:58:58;11.80;32.70
8402;DHT22;4238;48.404;9.498;2023-03-30T13:01:36;11.90;36.40
8402;DHT22;4238;48.404;9.498;2023-03-30T13:04:08;12.00;36.10
8402;DHT22;4238;48.404;9.498;2023-03-30T13:06:37;12.10;28.50
8402;DHT22;4238;48.404;9.498;2023-03-30T13:09:33;12.20;16.60
8402;DHT22;4238;48.404;9.498;2023-03-30T13:15:30;13.10;4.00
8402;DHT22;4238;48.404;9.498;2023-03-30T13:17:59;12.80;1.00
8402;DHT22;4238;48.404;9.498;2023-03-30T13:20:32;12.90;1.00
8402;DHT22;4238;48.404;9.498;2023-03-30T13:23:04;13.10;1.00
8402;DHT22;4238;48.404;9.498;2023-03-30T13:25:39;13.30;1.00
8402;DHT22;4238;48.404;9.498;2023-03-30T13:28:32;13.40;1.00
8402;DHT22;4238;48.404;9.498;2023-03-30T13:31:16;13.50;1.00
8402;DHT22;4238;48.404;9.498;2023-03-30T13:33:48;13.50;1.00
8402;DHT22;4238;48.404;9.498;2023-03-30T13:36:20;14.10;1.00
8402;DHT22;4238;48.404;9.498;2023-03-30T13:39:01;14.00;1.00
8402;DHT22;4238;48.404;9.498;2023-03-30T13:41:37;13.80;1.00
8402;DHT22;4238;48.404;9.498;2023-03-30T13:44:18;14.00;1.00
8402;DHT22;4238;48.404;9.498;2023-03-30T13:46:51;14.40;1.00
8402;DHT22;4238;48.404;9.498;2023-03-30T13:49:31;14.70;1.00
8402;DHT22;4238;48.404;9.498;2023-03-30T13:52:04;14.90;4.70
8402;DHT22;4238;48.404;9.498;2023-03-30T13:54:37;15.10;55.20
8402;DHT22;4238;48.404;9.498;2023-03-30T13:57:08;15.40;99.90
8402;DHT22;4238;48.404;9.498;2023-03-30T13:59:39;15.20;1.00
8402;DHT22;4238;48.404;9.498;2023-03-30T14:02:12;15.10;1.00
8402;DHT22;4238;48.404;9.498;2023-03-30T14:04:40;15.00;1.00
8402;DHT22;4238;48.404;9.498;2023-03-30T14:07:14;15.30;99.90
8402;DHT22;4238;48.404;9.498;2023-03-30T14:09:42;15.50;1.00
8402;DHT22;4238;48.404;9.498;2023-03-30T14:12:11;15.40;99.90
8402;DHT22;4238;48.404;9.498;2023-03-30T14:14:41;15.40;99.90
8402;DHT22;4238;48.404;9.498;2023-03-30T14:17:13;15.40;1.00
8402;DHT22;4238;48.404;9.498;2023-03-30T14:19:49;15.30;1.00
8402;DHT22;4238;48.404;9.498;2023-03-30T14:22:22;15.10;99.90
8402;DHT22;4238;48.404;9.498;2023-03-30T14:24:58;15.20;1.00
8402;DHT22;4238;48.404;9.498;2023-03-30T14:27:31;14.80;1.00
8402;DHT22;4238;48.404;9.498;2023-03-30T14:29:58;14.90;99.90
8402;DHT22;4238;48.404;9.498;2023-03-30T14:32:25;15.00;96.20
8402;DHT22;4238;48.404;9.498;2023-03-30T14:34:53;14.60;99.90
8402;DHT22;4238;48.404;9.498;2023-03-30T14:37:22;14.30;99.90
8402;DHT22;4238;48.404;9.498;2023-03-30T14:39:53;14.20;1.00
8402;DHT22;4238;48.404;9.498;2023-03-30T14:42:23;14.00;1.00
8402;DHT22;4238;48.404;9.498;2023-03-30T14:44:53;13.90;1.00
8402;DHT22;4238;48.404;9.498;2023-03-30T14:47:23;13.80;99.90
8402;DHT22;4238;48.404;9.498;2023-03-30T14:49:52;13.80;99.90
8402;DHT22;4238;48.404;9.498;2023-03-30T14:52:23;13.90;99.90
8402;DHT22;4238;48.404;9.498;2023-03-30T14:54:52;13.90;99.90
8402;DHT22;4238;48.404;9.498;2023-03-30T14:57:21;13.90;78.60
8402;DHT22;4238;48.404;9.498;2023-03-30T14:59:51;13.80;1.00
8402;DHT22;4238;48.404;9.498;2023-03-30T15:02:21;13.70;99.90
8402;DHT22;4238;48.404;9.498;2023-03-30T15:04:49;13.50;1.00
8402;DHT22;4238;48.404;9.498;2023-03-30T15:07:17;13.40;99.90
8402;DHT22;4238;48.404;9.498;2023-03-30T15:09:46;13.30;1.00
8402;DHT22;4238;48.404;9.498;2023-03-30T15:12:22;13.30;99.90
8402;DHT22;4238;48.404;9.498;2023-03-30T15:14:52;13.20;99.90
8402;DHT22;4238;48.404;9.498;2023-03-30T15:17:22;13.10;99.90
8402;DHT22;4238;48.404;9.498;2023-03-30T15:19:51;13.10;1.00
8402;DHT22;4238;48.404;9.498;2023-03-30T15:22:24;12.90;99.90
8402;DHT22;4238;48.404;9.498;2023-03-30T15:24:55;12.90;35.60
8402;DHT22;4238;48.404;9.498;2023-03-30T15:27:24;12.80;99.90
8402;DHT22;4238;48.404;9.498;2023-03-30T15:29:53;12.70;1.00
8402;DHT22;4238;48.404;9.498;2023-03-30T15:32:25;12.80;52.30
8402;DHT22;4238;48.404;9.498;2023-03-30T15:35:00;12.90;1.00
8402;DHT22;4238;48.404;9.498;2023-03-30T15:37:31;13.20;35.40
8402;DHT22;4238;48.404;9.498;2023-03-30T15:39:59;13.60;1.00
8402;DHT22;4238;48.404;9.498;2023-03-30T15:42:30;13.90;99.90
8402;DHT22;4238;48.404;9.498;2023-03-30T15:45:02;14.10;1.00
8402;DHT22;4238;48.404;9.498;2023-03-30T15:47:29;14.00;99.90
8402;DHT22;4238;48.404;9.498;2023-03-30T15:49:56;14.00;99.90
8402;DHT22;4238;48.404;9.498;2023-03-30T15:52:25;14.00;99.90
8402;DHT22;4238;48.404;9.498;2023-03-30T15:55:04;13.80;99.90
8402;DHT22;4238;48.404;9.498;2023-03-30T15:57:32;13.40;99.90
8402;DHT22;4238;48.404;9.498;2023-03-30T16:00:01;13.30;99.90
8402;DHT22;4238;48.404;9.498;2023-03-30T16:02:37;13.30;99.90
8402;DHT22;4238;48.404;9.498;2023-03-30T16:05:06;13.30;99.90
8402;DHT22;4238;48.404;9.498;2023-03-30T16:07:34;13.40;99.90
8402;DHT22;4238;48.404;9.498;2023-03-30T16:10:05;13.60;99.90
8402;DHT22;4238;48.404;9.498;2023-03-30T16:12:41;13.70;99.90
8402;DHT22;4238;48.404;9.498;2023-03-30T16:15:12;13.80;1.00
8402;DHT22;4238;48.404;9.498;2023-03-30T16:17:40;13.90;99.90
8402;DHT22;4238;48.404;9.498;2023-03-30T16:20:13;13.90;99.90
8402;DHT22;4238;48.404;9.498;2023-03-30T16:22:40;13.80;99.90
8402;DHT22;4238;48.404;9.498;2023-03-30T16:25:09;13.80;99.90
8402;DHT22;4238;48.404;9.498;2023-03-30T16:27:36;13.70;99.90
8402;DHT22;4238;48.404;9.498;2023-03-30T16:30:13;13.60;99.90
8402;DHT22;4238;48.404;9.498;2023-03-30T16:32:41;13.50;99.90
8402;DHT22;4238;48.404;9.498;2023-03-30T16:35:08;13.50;1.00
8402;DHT22;4238;48.404;9.498;2023-03-30T16:37:35;13.40;99.90
8402;DHT22;4238;48.404;9.498;2023-03-30T16:40:14;13.30;1.00
8402;DHT22;4238;48.404;9.498;2023-03-30T16:42:42;13.20;1.00
8402;DHT22;4238;48.404;9.498;2023-03-30T16:45:09;13.20;1.00